Time;durP1;ratioP1;P1;durP2;ratioP2;P2;SDS_P1;SDS_P2;PMS_P1;PMS_P2;Temp;Humidity;BMP_temperature;BMP_pressure;BME280_temperature;BME280_humidity;BME280_pressure;Samples;Min_cycle;Max_cycle;Signal;HPM_P1;HPM_P2
2022/05/25 00:02:01;;;;;;;0.00;0.00;;;12.40;83.40;;;;;;5027924;28;20049;-69
2022/05/25 00:04:27;;;;;;;0.00;0.00;;;12.30;83.60;;;;;;5027548;28;20041;-69
2022/05/25 00:06:53;;;;;;;0.00;0.00;;;12.40;83.80;;;;;;5027848;28;20794;-69
2022/05/25 00:09:19;;;;;;;0.00;0.00;;;12.40;83.50;;;;;;5027729;28;20049;-69
2022/05/25 00:11:45;;;;;;;0.00;0.00;;;12.40;83.90;;;;;;5028096;28;20379;-69
2022/05/25 00:14:11;;;;;;;0.00;0.00;;;12.40;83.40;;;;;;5027774;28;20132;-69
2022/05/25 00:16:37;;;;;;;0.05;0.05;;;12.40;83.40;;;;;;5027658;28;20095;-69
2022/05/25 00:21:47;;;;;;;0.00;0.00;;;12.50;83.40;;;;;;5027819;28;20045;-70
2022/05/25 00:24:13;;;;;;;0.00;0.00;;;12.50;83.70;;;;;;5027797;28;20517;-69
2022/05/25 00:26:38;;;;;;;0.00;0.00;;;12.50;83.50;;;;;;5027260;28;20046;-69
2022/05/25 00:29:04;;;;;;;0.00;0.00;;;12.50;83.70;;;;;;5027320;28;20052;-69
2022/05/25 00:31:30;;;;;;;0.00;0.00;;;12.50;83.60;;;;;;5028083;28;20079;-69
2022/05/25 00:33:56;;;;;;;0.20;0.20;;;12.50;83.40;;;;;;5026978;28;20053;-69
2022/05/25 00:36:22;;;;;;;0.00;0.00;;;12.50;83.20;;;;;;5027365;28;20120;-69
2022/05/25 00:38:48;;;;;;;0.00;0.00;;;12.50;82.80;;;;;;5027309;28;20124;-69
2022/05/25 00:41:13;;;;;;;0.00;0.00;;;12.50;82.70;;;;;;5027725;28;20045;-69
2022/05/25 00:43:39;;;;;;;0.00;0.00;;;12.50;82.80;;;;;;5027215;28;20033;-69
2022/05/25 00:46:08;;;;;;;0.00;0.00;;;12.50;83.10;;;;;;5027091;28;20410;-69
2022/05/25 00:48:44;;;;;;;0.00;0.00;;;12.50;83.00;;;;;;5025283;28;20099;-69
2022/05/25 00:51:13;;;;;;;0.00;0.00;;;12.50;82.90;;;;;;5029057;28;20041;-69
2022/05/25 00:53:51;;;;;;;0.00;0.00;;;12.50;82.80;;;;;;5029562;28;20168;-69
2022/05/25 00:56:20;;;;;;;0.00;0.00;;;12.40;82.90;;;;;;5031245;28;20037;-69
2022/05/25 00:58:52;;;;;;;0.00;0.00;;;12.40;82.70;;;;;;5031661;28;20088;-70
2022/05/25 01:01:17;;;;;;;0.00;0.00;;;12.50;82.50;;;;;;5031619;28;20037;-69
2022/05/25 01:03:43;;;;;;;0.30;0.30;;;12.50;82.60;;;;;;5031853;28;20052;-69
2022/05/25 01:06:21;;;;;;;0.00;0.00;;;12.50;82.80;;;;;;5031357;28;20139;-70
2022/05/25 01:09:14;;;;;;;0.00;0.00;;;12.50;83.10;;;;;;5031046;28;20080;-69
2022/05/25 01:12:05;;;;;;;0.00;0.00;;;12.40;83.10;;;;;;5031537;28;20137;-69
2022/05/25 01:14:53;;;;;;;0.00;0.00;;;12.40;83.10;;;;;;5031817;28;20568;-70
2022/05/25 01:17:24;;;;;;;0.00;0.00;;;12.40;82.90;;;;;;5031193;28;20128;-70
2022/05/25 01:20:06;;;;;;;;;;;12.50;83.00;;;;;;5032236;28;20449;-69
2022/05/25 01:22:57;;;;;;;0.00;0.00;;;12.50;83.00;;;;;;5031306;28;19921;-69
2022/05/25 01:25:44;;;;;;;0.00;0.00;;;12.50;83.00;;;;;;5031924;28;20041;-69
2022/05/25 01:28:37;;;;;;;0.13;0.13;;;12.40;83.00;;;;;;5023952;28;20068;-69
2022/05/25 01:31:07;;;;;;;0.00;0.00;;;12.40;83.10;;;;;;5031033;28;20514;-69
2022/05/25 01:33:47;;;;;;;0.00;0.00;;;12.40;83.10;;;;;;5031448;28;20076;-69
2022/05/25 01:36:39;;;;;;;0.00;0.00;;;12.40;83.20;;;;;;5031687;28;20124;-69
2022/05/25 01:39:11;;;;;;;0.00;0.00;;;12.40;83.30;;;;;;5030781;28;20049;-69
2022/05/25 01:41:56;;;;;;;0.00;0.00;;;12.40;83.30;;;;;;5030664;28;20042;-69
2022/05/25 01:44:30;;;;;;;0.00;0.00;;;12.40;83.30;;;;;;5031726;28;20057;-69
2022/05/25 01:47:09;;;;;;;0.00;0.00;;;12.40;83.50;;;;;;5031456;28;20049;-69
2022/05/25 01:49:50;;;;;;;0.00;0.00;;;12.30;83.40;;;;;;5031438;28;20053;-69
2022/05/25 01:52:22;;;;;;;0.00;0.00;;;12.40;83.40;;;;;;5030724;28;20069;-70
2022/05/25 01:54:55;;;;;;;0.00;0.00;;;12.30;83.70;;;;;;5029983;28;20038;-69
2022/05/25 01:57:25;;;;;;;0.00;0.00;;;12.30;83.50;;;;;;5030759;28;20037;-69
2022/05/25 01:59:51;;;;;;;0.00;0.00;;;12.30;83.60;;;;;;5029777;28;20494;-69
2022/05/25 02:05:06;;;;;;;0.00;0.00;;;12.30;83.90;;;;;;5030295;28;20421;-69
2022/05/25 02:08:09;;;;;;;0.00;0.00;;;12.30;83.80;;;;;;5030919;28;20057;-69
2022/05/25 02:10:55;;;;;;;0.00;0.00;;;12.30;83.80;;;;;;5030611;28;20544;-70
2022/05/25 02:13:40;;;;;;;0.00;0.00;;;12.20;83.90;;;;;;5031245;28;20702;-69
2022/05/25 02:16:21;;;;;;;0.00;0.00;;;12.20;83.70;;;;;;5030458;28;20081;-69
2022/05/25 02:19:22;;;;;;;0.00;0.00;;;12.20;83.90;;;;;;5031093;28;20099;-69
2022/05/25 02:21:53;;;;;;;0.00;0.00;;;12.20;83.80;;;;;;5030792;28;20124;-69
2022/05/25 02:24:42;;;;;;;0.00;0.00;;;12.20;83.70;;;;;;5030913;28;20095;-70
2022/05/25 02:27:21;;;;;;;0.00;0.00;;;12.20;83.60;;;;;;5030787;28;20088;-69
2022/05/25 02:29:50;;;;;;;0.30;0.30;;;12.20;83.40;;;;;;5030795;28;20044;-69
2022/05/25 02:32:23;;;;;;;0.00;0.00;;;12.10;83.40;;;;;;5030350;28;20041;-69
2022/05/25 02:34:51;;;;;;;0.00;0.00;;;12.10;83.50;;;;;;5030248;28;20045;-69
2022/05/25 02:37:20;;;;;;;0.00;0.00;;;12.10;83.60;;;;;;5029850;28;20045;-69
2022/05/25 02:39:49;;;;;;;0.00;0.00;;;12.10;83.50;;;;;;5029775;28;20171;-69
2022/05/25 02:42:16;;;;;;;0.00;0.00;;;12.10;83.40;;;;;;5029456;28;20045;-69
2022/05/25 02:44:43;;;;;;;0.00;0.00;;;12.10;83.50;;;;;;5029761;28;20048;-69
2022/05/25 02:47:09;;;;;;;0.00;0.00;;;12.10;83.50;;;;;;5028107;28;20048;-69
2022/05/25 02:49:36;;;;;;;0.00;0.00;;;12.10;83.60;;;;;;5029600;28;20045;-69
2022/05/25 02:52:01;;;;;;;0.00;0.00;;;12.00;83.70;;;;;;5029592;28;20076;-69
2022/05/25 02:54:27;;;;;;;0.00;0.00;;;12.00;83.80;;;;;;5030014;28;20041;-69
2022/05/25 02:56:53;;;;;;;0.00;0.00;;;12.00;83.80;;;;;;5029233;28;20144;-70
2022/05/25 02:59:18;;;;;;;0.00;0.00;;;12.00;83.80;;;;;;5028752;28;20513;-69
2022/05/25 03:01:44;;;;;;;0.00;0.00;;;12.00;83.90;;;;;;5029601;28;20046;-69
2022/05/25 03:04:09;;;;;;;0.00;0.00;;;12.00;83.80;;;;;;5029471;28;20038;-69
2022/05/25 03:06:35;;;;;;;0.00;0.00;;;12.00;83.90;;;;;;5029146;28;20111;-69
2022/05/25 03:09:01;;;;;;;0.00;0.00;;;11.90;84.00;;;;;;5027386;28;20046;-69
2022/05/25 03:11:27;;;;;;;0.00;0.00;;;11.90;83.90;;;;;;5029504;28;20045;-69
2022/05/25 03:13:52;;;;;;;0.00;0.00;;;11.90;84.10;;;;;;5028611;28;20036;-69
2022/05/25 03:16:19;;;;;;;0.00;0.00;;;11.90;84.10;;;;;;5029589;28;20037;-69
2022/05/25 03:18:46;;;;;;;0.13;0.13;;;12.00;84.30;;;;;;5028865;28;20045;-69
2022/05/25 03:21:12;;;;;;;0.00;0.00;;;12.00;84.40;;;;;;5030140;28;20056;-69
2022/05/25 03:23:38;;;;;;;0.00;0.00;;;12.00;84.40;;;;;;5029109;28;20057;-69
2022/05/25 03:26:04;;;;;;;0.00;0.00;;;11.90;84.50;;;;;;5027479;28;20517;-70
2022/05/25 03:28:30;;;;;;;0.00;0.00;;;12.00;84.40;;;;;;5028620;28;20051;-70
2022/05/25 03:30:55;;;;;;;0.00;0.00;;;12.00;84.30;;;;;;5015680;28;20045;-69
2022/05/25 03:33:21;;;;;;;0.00;0.00;;;12.00;84.40;;;;;;5028938;28;20099;-69
2022/05/25 03:35:47;;;;;;;0.00;0.00;;;12.00;84.50;;;;;;5029282;28;20037;-70
2022/05/25 03:38:12;;;;;;;0.00;0.00;;;12.00;84.40;;;;;;5028682;28;20482;-70
2022/05/25 03:40:39;;;;;;;0.00;0.00;;;12.00;84.20;;;;;;5028820;28;20533;-69
2022/05/25 03:43:06;;;;;;;0.00;0.00;;;11.90;84.10;;;;;;5028845;28;20051;-69
2022/05/25 03:45:31;;;;;;;0.38;0.38;;;11.90;84.00;;;;;;5027784;28;20053;-69
2022/05/25 03:47:57;;;;;;;0.00;0.00;;;11.90;83.90;;;;;;5028962;28;20044;-69
2022/05/25 03:50:23;;;;;;;0.00;0.00;;;11.90;83.80;;;;;;5028408;28;20461;-69
2022/05/25 03:52:49;;;;;;;0.00;0.00;;;11.80;83.80;;;;;;5029532;28;20033;-69
2022/05/25 03:55:14;;;;;;;0.00;0.00;;;11.80;83.80;;;;;;5033581;28;20425;-69
2022/05/25 03:57:40;;;;;;;0.00;0.00;;;11.80;83.80;;;;;;5028360;28;20049;-69
2022/05/25 04:00:06;;;;;;;0.00;0.00;;;11.80;83.60;;;;;;5028169;28;20054;-69
2022/05/25 04:02:32;;;;;;;0.00;0.00;;;11.80;83.60;;;;;;5028451;28;20043;-69
2022/05/25 04:05:10;;;;;;;0.00;0.00;;;11.80;83.60;;;;;;5029299;28;20489;-70
2022/05/25 04:07:38;;;;;;;0.00;0.00;;;11.80;83.60;;;;;;5028539;28;20041;-69
2022/05/25 04:10:08;;;;;;;0.00;0.00;;;11.80;83.60;;;;;;5028562;28;20045;-69
2022/05/25 04:12:34;;;;;;;0.00;0.00;;;11.80;83.60;;;;;;5027897;28;20041;-69
2022/05/25 04:14:59;;;;;;;0.10;0.10;;;11.80;83.80;;;;;;5028553;28;20843;-70
2022/05/25 04:17:25;;;;;;;0.00;0.00;;;11.80;84.00;;;;;;5028501;28;20128;-71
2022/05/25 04:19:51;;;;;;;0.03;0.03;;;11.80;84.10;;;;;;5028443;28;20042;-70
2022/05/25 04:22:17;;;;;;;0.00;0.00;;;11.90;84.20;;;;;;5028535;28;20434;-69
2022/05/25 04:24:43;;;;;;;0.00;0.00;;;11.80;84.10;;;;;;5029585;28;20048;-69
2022/05/25 04:27:08;;;;;;;0.00;0.00;;;11.90;84.20;;;;;;5032882;28;20425;-69
2022/05/25 04:29:37;;;;;;;0.20;0.20;;;11.90;84.10;;;;;;5032806;28;20041;-69
2022/05/25 04:32:03;;;;;;;0.00;0.00;;;11.90;84.10;;;;;;5032002;28;20080;-68
2022/05/25 04:34:29;;;;;;;0.00;0.00;;;12.00;84.30;;;;;;5031781;28;20100;-68
2022/05/25 04:36:55;;;;;;;0.00;0.00;;;12.00;84.40;;;;;;5031467;28;20052;-68
2022/05/25 04:39:20;;;;;;;0.00;0.00;;;12.10;84.50;;;;;;5031010;28;20044;-69
2022/05/25 04:41:46;;;;;;;0.10;0.10;;;12.10;84.70;;;;;;5032018;28;20068;-68
2022/05/25 04:44:12;;;;;;;0.00;0.00;;;12.10;84.70;;;;;;5022617;28;20099;-69
2022/05/25 04:46:37;;;;;;;0.00;0.00;;;12.10;84.80;;;;;;5022402;28;20051;-68
2022/05/25 04:49:03;;;;;;;0.03;0.03;;;12.20;84.70;;;;;;5025957;28;20045;-69
2022/05/25 04:51:29;;;;;;;0.00;0.00;;;12.20;84.90;;;;;;5031510;28;20402;-69
2022/05/25 04:53:55;;;;;;;0.00;0.00;;;12.20;85.00;;;;;;5031086;28;20042;-69
2022/05/25 04:59:04;;;;;;;0.00;0.00;;;12.30;85.10;;;;;;5030783;28;20053;-68
2022/05/25 05:01:30;;;;;;;0.00;0.00;;;12.40;85.10;;;;;;5038792;28;20116;-69
2022/05/25 05:03:56;;;;;;;0.00;0.00;;;12.50;85.30;;;;;;5027173;28;20045;-69
2022/05/25 05:06:22;;;;;;;0.00;0.00;;;12.50;85.30;;;;;;5030194;28;20060;-68
2022/05/25 05:08:47;;;;;;;0.00;0.00;;;12.50;85.30;;;;;;5030333;28;20690;-68
2022/05/25 05:11:18;;;;;;;0.00;0.00;;;12.60;85.10;;;;;;5027255;28;20049;-68
2022/05/25 05:13:44;;;;;;;0.00;0.00;;;12.60;85.20;;;;;;5031067;28;20037;-69
2022/05/25 05:16:14;;;;;;;0.00;0.00;;;12.60;85.10;;;;;;5031908;28;20449;-68
2022/05/25 05:18:42;;;;;;;0.00;0.00;;;12.70;85.30;;;;;;5031583;28;20505;-68
2022/05/25 05:21:09;;;;;;;7.88;1.08;;;12.80;85.10;;;;;;5032158;28;20057;-68
2022/05/25 05:23:37;;;;;;;0.00;0.00;;;12.80;85.40;;;;;;5031915;28;20111;-68
2022/05/25 05:26:03;;;;;;;0.00;0.00;;;12.90;85.30;;;;;;5031820;28;20049;-69
2022/05/25 05:28:32;;;;;;;0.00;0.00;;;13.00;85.20;;;;;;5031254;28;20041;-69
2022/05/25 05:30:59;;;;;;;0.00;0.00;;;13.00;84.70;;;;;;5031280;28;20041;-69
2022/05/25 05:33:26;;;;;;;0.00;0.00;;;13.00;84.80;;;;;;5031791;28;20052;-69
2022/05/25 05:36:12;;;;;;;0.00;0.00;;;13.10;84.80;;;;;;5031065;28;20048;-71
2022/05/25 05:38:53;;;;;;;0.10;0.10;;;13.10;85.20;;;;;;5029567;28;20041;-69
2022/05/25 05:41:21;;;;;;;0.05;0.05;;;13.10;85.20;;;;;;5031501;28;20044;-69
2022/05/25 05:43:47;;;;;;;0.00;0.00;;;13.20;85.10;;;;;;5031733;28;20045;-69
2022/05/25 05:46:14;;;;;;;0.00;0.00;;;13.20;85.00;;;;;;5030832;28;20391;-69
2022/05/25 05:48:40;;;;;;;0.10;0.10;;;13.30;84.60;;;;;;5030470;28;20486;-69
2022/05/25 05:51:06;;;;;;;0.00;0.00;;;13.30;84.30;;;;;;5031200;28;20041;-70
2022/05/25 05:53:32;;;;;;;0.00;0.00;;;13.30;84.30;;;;;;5030756;28;20048;-69
2022/05/25 05:55:59;;;;;;;0.00;0.00;;;13.40;84.20;;;;;;5030033;28;20053;-69
2022/05/25 05:58:24;;;;;;;0.00;0.00;;;13.40;84.10;;;;;;5030477;28;20041;-69
2022/05/25 06:00:50;;;;;;;0.00;0.00;;;13.50;83.80;;;;;;5031189;28;20711;-69
2022/05/25 06:03:16;;;;;;;0.00;0.00;;;13.50;83.60;;;;;;5030412;28;20461;-69
2022/05/25 06:05:43;;;;;;;0.00;0.00;;;13.60;83.20;;;;;;5023342;28;20060;-69
2022/05/25 06:08:18;;;;;;;0.10;0.10;;;13.60;83.00;;;;;;5036961;28;20091;-68
2022/05/25 06:10:45;;;;;;;0.00;0.00;;;13.60;82.90;;;;;;5028805;28;20091;-68
2022/05/25 06:13:11;;;;;;;0.05;0.05;;;13.60;82.80;;;;;;5030193;28;20479;-69
2022/05/25 06:21:09;;;;;;;0.00;0.00;;;13.80;82.00;;;;;;5031174;28;20498;-68
2022/05/25 06:23:34;;;;;;;0.00;0.00;;;13.80;81.80;;;;;;5023727;28;20077;-69
2022/05/25 06:26:00;;;;;;;0.00;0.00;;;13.80;81.80;;;;;;5026020;28;20046;-69
2022/05/25 06:28:25;;;;;;;0.00;0.00;;;13.90;81.70;;;;;;5029917;28;20033;-68
2022/05/25 06:30:52;;;;;;;0.00;0.00;;;14.00;81.80;;;;;;5032417;28;20049;-68
2022/05/25 06:33:18;;;;;;;0.00;0.00;;;14.10;81.90;;;;;;5029062;28;20409;-68
2022/05/25 06:35:43;;;;;;;0.00;0.00;;;14.10;81.50;;;;;;5011465;28;20041;-69
2022/05/25 06:38:09;;;;;;;0.75;0.75;;;14.20;81.20;;;;;;5029813;28;20041;-69
2022/05/25 06:40:34;;;;;;;0.05;0.05;;;14.20;80.80;;;;;;5029679;28;20045;-69
2022/05/25 06:43:00;;;;;;;0.00;0.00;;;14.20;80.80;;;;;;5030190;28;20037;-69
2022/05/25 06:45:25;;;;;;;0.00;0.00;;;14.30;80.40;;;;;;5028569;28;20103;-71
2022/05/25 06:47:51;;;;;;;0.00;0.00;;;14.40;80.00;;;;;;5028312;28;20052;-69
2022/05/25 06:50:17;;;;;;;0.00;0.00;;;14.50;80.20;;;;;;5029684;28;20461;-70
2022/05/25 06:52:43;;;;;;;0.00;0.00;;;14.50;80.10;;;;;;5029267;28;20053;-69
2022/05/25 06:55:08;;;;;;;0.00;0.00;;;14.50;80.30;;;;;;5029040;28;20044;-69
2022/05/25 06:57:34;;;;;;;0.00;0.00;;;14.60;80.10;;;;;;5029231;28;20049;-71
2022/05/25 06:59:59;;;;;;;0.00;0.00;;;14.60;79.90;;;;;;5029799;28;20044;-69
2022/05/25 07:02:26;;;;;;;0.00;0.00;;;14.60;79.80;;;;;;5027593;28;20172;-68
2022/05/25 07:04:52;;;;;;;1.30;1.20;;;14.70;79.70;;;;;;5027355;28;20514;-67
2022/05/25 07:07:18;;;;;;;0.00;0.00;;;14.80;79.40;;;;;;5026138;28;20076;-67
2022/05/25 07:09:43;;;;;;;0.00;0.00;;;14.90;79.70;;;;;;5025373;28;20065;-68
2022/05/25 07:12:09;;;;;;;0.00;0.00;;;15.00;79.60;;;;;;5029615;28;20077;-67
2022/05/25 07:14:35;;;;;;;0.00;0.00;;;15.10;79.20;;;;;;5031354;28;20069;-67
2022/05/25 07:17:02;;;;;;;0.00;0.00;;;15.20;79.40;;;;;;5027520;28;20048;-67
2022/05/25 07:19:28;;;;;;;0.00;0.00;;;15.30;79.00;;;;;;5026781;28;20037;-66
2022/05/25 07:21:53;;;;;;;0.00;0.00;;;15.30;78.60;;;;;;5023080;28;20049;-66
2022/05/25 07:24:19;;;;;;;0.00;0.00;;;15.30;78.60;;;;;;5028148;28;20111;-66
2022/05/25 07:26:45;;;;;;;0.00;0.00;;;15.40;78.70;;;;;;5028640;28;20037;-66
2022/05/25 07:29:12;;;;;;;0.00;0.00;;;15.30;77.80;;;;;;5028694;28;20092;-67
2022/05/25 07:31:39;;;;;;;0.00;0.00;;;15.30;78.10;;;;;;5029003;28;20057;-66
2022/05/25 07:34:08;;;;;;;0.00;0.00;;;15.20;77.40;;;;;;5028454;28;20125;-66
2022/05/25 07:36:36;;;;;;;1.00;0.93;;;15.10;77.90;;;;;;5028547;28;20049;-65
2022/05/25 07:39:04;;;;;;;0.10;0.10;;;15.00;77.70;;;;;;5028625;28;20045;-65
2022/05/25 07:41:33;;;;;;;0.00;0.00;;;15.10;78.50;;;;;;5028595;28;20494;-66
2022/05/25 07:43:59;;;;;;;0.00;0.00;;;15.20;79.10;;;;;;5028407;28;20149;-66
2022/05/25 07:46:29;;;;;;;0.00;0.00;;;15.40;78.90;;;;;;5027589;28;20925;-65
2022/05/25 07:48:55;;;;;;;0.00;0.00;;;15.50;78.10;;;;;;5020683;28;20041;-65
2022/05/25 07:51:21;;;;;;;0.00;0.00;;;15.60;78.30;;;;;;5022245;28;20124;-66
2022/05/25 07:53:56;;;;;;;0.00;0.00;;;15.70;78.10;;;;;;5016903;28;20693;-66
2022/05/25 07:56:32;;;;;;;0.35;0.22;;;15.70;76.90;;;;;;5013763;28;20494;-66
2022/05/25 07:58:59;;;;;;;0.00;0.00;;;15.60;76.10;;;;;;5028057;28;20048;-66
2022/05/25 08:06:58;;;;;;;0.55;0.55;;;15.50;76.60;;;;;;5028283;28;20053;-66
2022/05/25 08:09:25;;;;;;;0.00;0.00;;;15.50;76.70;;;;;;5042241;28;20060;-65
2022/05/25 08:11:52;;;;;;;0.00;0.00;;;15.50;77.30;;;;;;5028065;28;20057;-66
2022/05/25 08:14:17;;;;;;;0.00;0.00;;;15.60;77.10;;;;;;5026883;28;20062;-66
2022/05/25 08:16:43;;;;;;;0.00;0.00;;;15.70;76.90;;;;;;5027671;28;20055;-66
2022/05/25 08:19:09;;;;;;;0.00;0.00;;;15.80;76.70;;;;;;5028022;28;20048;-66
2022/05/25 08:21:34;;;;;;;0.00;0.00;;;15.80;77.10;;;;;;5028280;28;20095;-66
2022/05/25 08:24:00;;;;;;;0.20;0.20;;;15.90;77.00;;;;;;5027358;28;20041;-66
2022/05/25 08:26:25;;;;;;;0.00;0.00;;;16.00;77.00;;;;;;5028000;28;20076;-66
2022/05/25 08:28:51;;;;;;;0.00;0.00;;;16.00;76.90;;;;;;5027684;28;20049;-66
2022/05/25 08:31:17;;;;;;;0.00;0.00;;;16.00;77.00;;;;;;5027590;28;20041;-66
2022/05/25 08:33:43;;;;;;;0.00;0.00;;;16.10;77.00;;;;;;5028449;28;20094;-66
2022/05/25 08:36:09;;;;;;;0.00;0.00;;;16.10;76.90;;;;;;5027112;28;20041;-65
2022/05/25 08:38:35;;;;;;;0.00;0.00;;;16.00;76.40;;;;;;5027418;28;20046;-66
2022/05/25 08:41:01;;;;;;;0.00;0.00;;;16.10;76.40;;;;;;5028316;28;20034;-66
2022/05/25 08:43:46;;;;;;;0.00;0.00;;;16.10;76.10;;;;;;5028222;28;20049;-66
2022/05/25 08:46:16;;;;;;;0.00;0.00;;;16.10;76.10;;;;;;5028203;28;20046;-65
2022/05/25 08:48:43;;;;;;;0.40;0.40;;;16.20;76.70;;;;;;5026437;28;20494;-66
2022/05/25 08:51:13;;;;;;;0.00;0.00;;;16.30;76.20;;;;;;5026537;28;20757;-66
2022/05/25 08:53:39;;;;;;;0.00;0.00;;;16.50;76.00;;;;;;5027123;28;20092;-65
2022/05/25 08:56:17;;;;;;;0.00;0.00;;;16.60;76.00;;;;;;5032949;28;20041;-66
2022/05/25 08:59:13;;;;;;;0.63;0.52;;;16.60;76.10;;;;;;5031409;28;20622;-66
2022/05/25 09:02:11;;;;;;;0.00;0.00;;;16.60;75.30;;;;;;5028379;28;20045;-66
2022/05/25 09:04:55;;;;;;;0.00;0.00;;;16.60;75.00;;;;;;5029763;28;20054;-64
2022/05/25 09:07:40;;;;;;;0.00;0.00;;;16.50;74.20;;;;;;5033464;28;20060;-66
2022/05/25 09:10:07;;;;;;;0.00;0.00;;;16.40;74.90;;;;;;5025596;28;20096;-67
2022/05/25 09:12:39;;;;;;;0.00;0.00;;;16.40;75.10;;;;;;5029190;28;20053;-68
2022/05/25 09:15:12;;;;;;;;;;;16.40;75.40;;;;;;5012742;28;20042;-68
2022/05/25 09:17:47;;;;;;;0.00;0.00;;;16.30;75.10;;;;;;5011465;28;19932;-68
2022/05/25 09:20:18;;;;;;;0.15;0.15;;;16.30;74.60;;;;;;5011127;28;20486;-68
2022/05/25 09:22:44;;;;;;;0.00;0.00;;;16.40;74.20;;;;;;5017948;28;20037;-66
2022/05/25 09:25:12;;;;;;;0.00;0.00;;;16.40;74.60;;;;;;5028806;28;20048;-66
2022/05/25 09:28:03;;;;;;;0.98;0.63;;;16.60;74.80;;;;;;5024922;28;20060;-66
2022/05/25 09:30:32;;;;;;;0.00;0.00;;;16.60;74.40;;;;;;5023889;28;20132;-66
2022/05/25 09:33:36;;;;;;;0.00;0.00;;;16.60;74.20;;;;;;5021894;28;20574;-67
2022/05/25 09:36:11;;;;;;;0.00;0.00;;;16.50;74.10;;;;;;5027083;28;20042;-66
2022/05/25 09:38:43;;;;;;;0.40;0.40;;;16.40;74.50;;;;;;5012464;28;20046;-66
2022/05/25 09:41:18;;;;;;;0.10;0.10;;;16.30;75.00;;;;;;5012723;28;20077;-66
2022/05/25 09:43:44;;;;;;;0.00;0.00;;;16.20;75.40;;;;;;5011841;28;20140;-67
2022/05/25 09:46:31;;;;;;;0.00;0.00;;;16.10;75.00;;;;;;5011101;28;20136;-67
2022/05/25 09:49:04;;;;;;;0.00;0.00;;;16.00;73.90;;;;;;5016054;28;20045;-66
2022/05/25 09:51:40;;;;;;;0.00;0.00;;;16.00;75.50;;;;;;5031262;28;20056;-66
2022/05/25 09:54:17;;;;;;;0.00;0.00;;;16.10;74.60;;;;;;5025884;28;20045;-67
2022/05/25 09:56:50;;;;;;;0.00;0.00;;;16.00;73.70;;;;;;5029039;28;20037;-67
2022/05/25 09:59:42;;;;;;;0.00;0.00;;;15.90;72.70;;;;;;5026924;28;20536;-67
2022/05/25 10:02:30;;;;;;;0.00;0.00;;;15.70;71.80;;;;;;5030176;28;20030;-67
2022/05/25 10:05:15;;;;;;;0.00;0.00;;;15.60;75.00;;;;;;5026320;28;20058;-67
2022/05/25 10:07:59;;;;;;;0.13;0.13;;;15.60;76.10;;;;;;5030701;28;20509;-67
2022/05/25 10:10:43;;;;;;;0.00;0.00;;;15.20;76.00;;;;;;5030543;28;20053;-68
2022/05/25 10:13:25;;;;;;;0.05;0.05;;;14.30;75.80;;;;;;5029849;28;20033;-67
2022/05/25 10:15:53;;;;;;;0.00;0.00;;;13.70;76.70;;;;;;5030284;28;20172;-68
2022/05/25 10:18:35;;;;;;;0.00;0.00;;;13.40;80.00;;;;;;5029455;28;20132;-69
2022/05/25 10:21:01;;;;;;;;;;;13.20;81.70;;;;;;5026481;28;20095;-68
2022/05/25 10:23:27;;;;;;;1.02;0.52;;;13.10;82.60;;;;;;5024820;28;19925;-67
2022/05/25 10:26:19;;;;;;;0.25;0.25;;;13.10;84.10;;;;;;5020179;28;20454;-68
2022/05/25 10:28:51;;;;;;;1.92;1.75;;;13.20;84.40;;;;;;5016889;28;20141;-68
2022/05/25 10:37:06;;;;;;;0.10;0.10;;;13.70;86.20;;;;;;5028473;28;20049;-68
2022/05/25 10:39:38;;;;;;;0.00;0.00;;;13.80;85.80;;;;;;5018774;28;20033;-69
2022/05/25 10:42:09;;;;;;;0.00;0.00;;;13.80;85.20;;;;;;5024834;28;20422;-69
2022/05/25 10:44:56;;;;;;;0.10;0.10;;;14.00;86.00;;;;;;5018865;28;20048;-69
2022/05/25 10:47:37;;;;;;;1.45;1.35;;;14.10;85.80;;;;;;5025734;28;20053;-69
2022/05/25 10:50:09;;;;;;;0.13;0.13;;;14.30;85.90;;;;;;5018571;28;20130;-68
2022/05/25 10:52:38;;;;;;;0.03;0.03;;;14.50;85.10;;;;;;5027310;28;20483;-68
2022/05/25 10:55:05;;;;;;;0.03;0.03;;;14.50;84.30;;;;;;5023989;28;20046;-67
2022/05/25 10:57:59;;;;;;;0.00;0.00;;;14.60;84.10;;;;;;5028070;28;20509;-67
2022/05/25 11:00:51;;;;;;;0.00;0.00;;;14.70;83.70;;;;;;5026588;28;20140;-67
2022/05/25 11:03:42;;;;;;;0.00;0.00;;;14.90;83.50;;;;;;5039142;28;21781;-67
2022/05/25 11:06:37;;;;;;;0.47;0.47;;;15.10;81.20;;;;;;5028258;28;20071;-67
2022/05/25 11:09:15;;;;;;;0.00;0.00;;;15.30;76.70;;;;;;5027439;28;20103;-67
2022/05/25 11:12:11;;;;;;;0.00;0.00;;;15.50;76.00;;;;;;5018941;28;20042;-66
2022/05/25 11:14:43;;;;;;;0.00;0.00;;;15.80;75.10;;;;;;5026840;28;20038;-67
2022/05/25 11:17:31;;;;;;;0.00;0.00;;;16.00;70.10;;;;;;5029605;28;20064;-67
2022/05/25 11:20:05;;;;;;;0.03;0.03;;;16.10;70.40;;;;;;5019105;28;20862;-66
2022/05/25 11:22:33;;;;;;;0.00;0.00;;;16.20;67.80;;;;;;5019172;28;20056;-68
2022/05/25 11:25:16;;;;;;;0.00;0.00;;;16.20;64.90;;;;;;5026820;28;20106;-66
2022/05/25 11:28:16;;;;;;;0.00;0.00;;;16.30;66.40;;;;;;5027188;28;20044;-67
2022/05/25 11:31:06;;;;;;;0.03;0.03;;;16.30;64.00;;;;;;5024694;28;20055;-66
2022/05/25 11:33:46;;;;;;;0.00;0.00;;;16.40;62.60;;;;;;5019792;28;20073;-67
2022/05/25 11:36:46;;;;;;;0.00;0.00;;;16.60;61.50;;;;;;5025514;28;20124;-67
2022/05/25 11:39:33;;;;;;;0.00;0.00;;;16.40;59.90;;;;;;5028815;28;20045;-67
2022/05/25 11:42:09;;;;;;;0.30;0.20;;;16.50;62.20;;;;;;5018201;28;20057;-67
2022/05/25 11:44:58;;;;;;;0.10;0.10;;;16.60;61.80;;;;;;5028892;28;20050;-67
2022/05/25 11:47:32;;;;;;;0.00;0.00;;;16.70;59.60;;;;;;5030020;28;20049;-67
2022/05/25 11:50:20;;;;;;;0.00;0.00;;;16.60;59.20;;;;;;5028108;28;20049;-67
2022/05/25 11:53:06;;;;;;;0.00;0.00;;;16.60;59.90;;;;;;5019950;28;20076;-67
2022/05/25 11:55:47;;;;;;;0.00;0.00;;;16.70;60.40;;;;;;5028713;28;20049;-67
2022/05/25 11:58:43;;;;;;;0.00;0.00;;;16.80;58.90;;;;;;5029092;28;20041;-67
2022/05/25 12:01:08;;;;;;;0.00;0.00;;;16.70;58.10;;;;;;5026907;28;20037;-67
2022/05/25 12:04:07;;;;;;;0.00;0.00;;;16.80;58.80;;;;;;5032445;28;20096;-67
2022/05/25 12:07:08;;;;;;;0.00;0.00;;;16.90;59.50;;;;;;5041332;28;20416;-67
2022/05/25 12:09:52;;;;;;;0.00;0.00;;;17.00;57.90;;;;;;5026673;28;20041;-66
2022/05/25 12:12:31;;;;;;;0.00;0.00;;;17.10;55.10;;;;;;5026847;28;20049;-67
2022/05/25 12:15:09;;;;;;;0.00;0.00;;;17.00;55.30;;;;;;5028122;28;20276;-68
2022/05/25 12:17:57;;;;;;;0.00;0.00;;;17.00;55.50;;;;;;5029121;28;20502;-68
2022/05/25 12:20:48;;;;;;;0.00;0.00;;;17.10;56.20;;;;;;5047681;28;20048;-68
2022/05/25 12:23:21;;;;;;;0.00;0.00;;;17.10;55.90;;;;;;5043755;28;20048;-68
2022/05/25 12:26:00;;;;;;;0.00;0.00;;;16.90;56.40;;;;;;5048277;28;20832;-67
2022/05/25 12:28:38;;;;;;;0.00;0.00;;;16.90;57.10;;;;;;5047868;28;20392;-67
2022/05/25 12:31:20;;;;;;;0.00;0.00;;;17.00;56.00;;;;;;5047741;28;20049;-67
2022/05/25 12:33:47;;;;;;;2.95;1.45;;;17.00;55.20;;;;;;5039118;28;20049;-67
2022/05/25 12:36:14;;;;;;;0.00;0.00;;;16.90;55.90;;;;;;5028252;28;20115;-65
2022/05/25 12:38:39;;;;;;;0.10;0.10;;;17.00;57.20;;;;;;5027654;28;20104;-65
2022/05/25 12:41:31;;;;;;;0.00;0.00;;;17.00;58.50;;;;;;5027642;28;20037;-67
2022/05/25 12:44:03;;;;;;;0.00;0.00;;;16.90;58.40;;;;;;5025901;28;20057;-66
2022/05/25 12:50:01;;;;;;;0.00;0.00;;;16.80;58.30;;;;;;5009195;28;20054;-67
2022/05/25 12:52:27;;;;;;;0.00;0.00;;;16.60;60.00;;;;;;5031601;28;20045;-67
2022/05/25 12:55:13;;;;;;;0.00;0.00;;;16.60;60.50;;;;;;5030996;28;20037;-66
2022/05/25 12:57:50;;;;;;;0.00;0.00;;;16.60;60.20;;;;;;5030388;28;20050;-67
2022/05/25 13:00:35;;;;;;;0.00;0.00;;;16.60;59.80;;;;;;5031881;28;20397;-67
2022/05/25 13:03:18;;;;;;;0.00;0.00;;;16.50;60.40;;;;;;5030592;28;20064;-67
2022/05/25 13:05:46;;;;;;;0.55;0.55;;;16.50;59.90;;;;;;5031837;28;20081;-67
2022/05/25 13:08:46;;;;;;;0.17;0.17;;;16.40;59.50;;;;;;5031754;28;20049;-65
2022/05/25 13:11:33;;;;;;;0.00;0.00;;;16.30;58.80;;;;;;5016918;28;20045;-65
2022/05/25 13:14:22;;;;;;;0.00;0.00;;;16.40;60.30;;;;;;5030481;28;20044;-64
2022/05/25 13:16:52;;;;;;;0.00;0.00;;;16.40;60.50;;;;;;5020307;28;20394;-65
2022/05/25 13:19:36;;;;;;;0.38;0.38;;;16.40;59.70;;;;;;5029417;28;20100;-64
2022/05/25 13:22:17;;;;;;;0.00;0.00;;;16.40;60.10;;;;;;5030108;28;20037;-65
2022/05/25 13:25:07;;;;;;;0.00;0.00;;;16.50;61.00;;;;;;5030136;28;20046;-65
2022/05/25 13:27:58;;;;;;;3.90;2.50;;;16.50;61.80;;;;;;5027365;28;20102;-64
2022/05/25 13:30:39;;;;;;;0.00;0.00;;;16.60;60.90;;;;;;5020637;28;20053;-65
2022/05/25 13:33:19;;;;;;;0.00;0.00;;;16.60;61.80;;;;;;5021022;28;20457;-64
2022/05/25 13:36:14;;;;;;;0.00;0.00;;;16.60;60.80;;;;;;5022249;28;20143;-64
2022/05/25 13:38:59;;;;;;;0.00;0.00;;;16.70;61.80;;;;;;5028974;28;20041;-65
2022/05/25 13:41:39;;;;;;;0.00;0.00;;;16.60;59.70;;;;;;5017153;28;20050;-64
2022/05/25 13:44:08;;;;;;;0.00;0.00;;;16.70;60.10;;;;;;5017713;28;20044;-65
2022/05/25 13:46:41;;;;;;;3.20;2.75;;;16.70;60.90;;;;;;5030208;28;20056;-64